Time;durP1;ratioP1;P1;durP2;ratioP2;P2;SDS_P1;SDS_P2;PMS_P1;PMS_P2;Temp;Humidity;BMP_temperature;BMP_pressure;BME280_temperature;BME280_humidity;BME280_pressure;Samples;Min_cycle;Max_cycle;Signal;HPM_P1;HPM_P2
2023/05/22 00:01:01;;;;;;;8.45;6.53;;;19.40;99.90;;;;;;5042802;28;20196;-65
2023/05/22 00:03:28;;;;;;;6.80;6.03;;;19.40;99.90;;;;;;5048137;28;20924;-65
2023/05/22 00:05:57;;;;;;;8.25;6.57;;;19.40;99.90;;;;;;5065997;28;20567;-65
2023/05/22 00:08:24;;;;;;;8.68;7.07;;;19.40;99.90;;;;;;5031876;28;20200;-66
2023/05/22 00:10:51;;;;;;;6.50;5.88;;;19.40;99.90;;;;;;5044942;28;20696;-65
2023/05/22 00:13:18;;;;;;;7.03;6.32;;;19.30;99.90;;;;;;5059333;28;20231;-65
2023/05/22 00:15:45;;;;;;;7.50;6.55;;;19.30;99.90;;;;;;5036441;28;20295;-65
2023/05/22 00:18:13;;;;;;;8.30;6.20;;;19.30;99.90;;;;;;5054519;28;20244;-65
2023/05/22 00:20:41;;;;;;;6.65;5.95;;;19.30;99.90;;;;;;5060570;28;20208;-65
2023/05/22 00:23:09;;;;;;;6.72;6.03;;;19.30;99.90;;;;;;5040269;28;20232;-65
2023/05/22 00:25:35;;;;;;;10.07;6.75;;;19.20;99.90;;;;;;5028955;28;20200;-65
2023/05/22 00:28:02;;;;;;;7.07;6.22;;;19.30;99.90;;;;;;5059616;28;20708;-65
2023/05/22 00:30:29;;;;;;;9.23;6.88;;;19.20;99.90;;;;;;5056471;28;20318;-65
2023/05/22 00:32:56;;;;;;;9.55;6.22;;;19.20;99.90;;;;;;5033730;28;20309;-65
2023/05/22 00:35:24;;;;;;;7.03;6.32;;;19.10;99.90;;;;;;5055363;28;20236;-65
2023/05/22 00:37:51;;;;;;;7.88;6.53;;;19.10;99.90;;;;;;5045125;28;20201;-66
2023/05/22 00:40:18;;;;;;;11.25;6.55;;;19.10;99.90;;;;;;5027387;28;20602;-65
2023/05/22 00:42:45;;;;;;;11.35;6.90;;;19.10;99.90;;;;;;5058212;28;20197;-65
2023/05/22 00:45:13;;;;;;;8.38;6.05;;;19.00;99.90;;;;;;5059462;28;20224;-65
2023/05/22 00:47:40;;;;;;;8.98;7.28;;;19.00;99.90;;;;;;5048616;28;20204;-65
2023/05/22 00:50:09;;;;;;;9.48;6.53;;;19.00;99.90;;;;;;5051294;28;20233;-65
2023/05/22 00:52:41;;;;;;;7.32;6.28;;;18.90;99.90;;;;;;5055930;28;20258;-65
2023/05/22 00:55:10;;;;;;;9.23;7.60;;;18.80;99.90;;;;;;5013762;28;20207;-65
2023/05/22 00:57:39;;;;;;;9.63;6.43;;;18.80;99.90;;;;;;5058323;28;20219;-65
2023/05/22 01:00:09;;;;;;;8.20;6.80;;;18.80;99.90;;;;;;5036482;28;20199;-65
2023/05/22 01:02:36;;;;;;;7.80;6.30;;;18.70;99.90;;;;;;5050533;28;20204;-65
2023/05/22 01:05:04;;;;;;;7.22;6.13;;;18.70;99.90;;;;;;5061945;28;20209;-65
2023/05/22 01:07:32;;;;;;;7.43;6.45;;;18.70;99.90;;;;;;5060365;28;20185;-65
2023/05/22 01:10:00;;;;;;;9.95;6.55;;;18.60;99.90;;;;;;5027779;28;20204;-65
2023/05/22 01:12:34;;;;;;;13.93;6.40;;;18.60;99.90;;;;;;5056077;28;20224;-65
2023/05/22 01:15:09;;;;;;;9.23;7.25;;;18.60;99.90;;;;;;5049275;28;20219;-65
2023/05/22 01:17:46;;;;;;;6.93;6.18;;;18.60;99.90;;;;;;5044516;28;20192;-65
2023/05/22 01:20:21;;;;;;;7.20;6.22;;;18.50;99.90;;;;;;5054372;28;20203;-65
2023/05/22 01:23:15;;;;;;;7.90;6.50;;;18.50;99.90;;;;;;5058496;28;20219;-65
2023/05/22 01:26:12;;;;;;;8.40;6.82;;;18.60;99.90;;;;;;5051332;28;20211;-65
2023/05/22 01:28:59;;;;;;;11.00;6.25;;;18.60;99.90;;;;;;5062960;28;20231;-65
2023/05/22 01:31:31;;;;;;;7.40;6.30;;;18.50;99.90;;;;;;5065601;28;20215;-65
2023/05/22 01:34:00;;;;;;;7.82;6.63;;;18.50;99.90;;;;;;5038578;28;21242;-65
2023/05/22 01:36:30;;;;;;;10.23;6.72;;;18.50;99.90;;;;;;5056014;28;20196;-65
2023/05/22 01:39:00;;;;;;;8.23;6.03;;;18.50;99.90;;;;;;5058745;28;20207;-65
2023/05/22 01:41:28;;;;;;;9.10;6.65;;;18.50;99.90;;;;;;5028319;28;20208;-65
2023/05/22 01:43:55;;;;;;;7.32;6.60;;;18.40;99.90;;;;;;5063874;28;20196;-65
2023/05/22 01:46:26;;;;;;;6.78;6.05;;;18.40;99.90;;;;;;5058301;28;20193;-65
2023/05/22 01:48:53;;;;;;;8.90;6.72;;;18.40;99.90;;;;;;5047044;28;20208;-65
2023/05/22 01:51:25;;;;;;;7.68;6.78;;;18.40;99.90;;;;;;5047931;28;20200;-65
2023/05/22 01:53:57;;;;;;;7.78;6.38;;;18.40;99.90;;;;;;5062322;28;20236;-65
2023/05/22 01:56:31;;;;;;;8.70;6.47;;;18.30;99.90;;;;;;5047556;28;20223;-65
2023/05/22 01:59:04;;;;;;;8.45;6.55;;;18.30;99.90;;;;;;5028012;28;20258;-65
2023/05/22 02:01:34;;;;;;;7.95;6.80;;;18.30;99.90;;;;;;5065881;28;20204;-65
2023/05/22 02:04:02;;;;;;;8.55;6.63;;;18.30;99.90;;;;;;5060070;28;20209;-65
2023/05/22 02:06:32;;;;;;;9.00;6.93;;;18.30;99.90;;;;;;5044330;28;20689;-65
2023/05/22 02:09:00;;;;;;;11.40;6.95;;;18.30;99.90;;;;;;5067000;28;20661;-65
2023/05/22 02:11:29;;;;;;;8.55;6.70;;;18.30;99.90;;;;;;5050245;28;20201;-65
2023/05/22 02:13:57;;;;;;;8.63;6.35;;;18.30;99.90;;;;;;5038708;28;20215;-65
2023/05/22 02:16:24;;;;;;;7.72;6.95;;;18.20;99.90;;;;;;5054944;28;20196;-65
2023/05/22 02:19:01;;;;;;;8.68;6.90;;;18.10;99.90;;;;;;5055437;28;20208;-65
2023/05/22 02:21:28;;;;;;;8.43;7.07;;;18.10;99.90;;;;;;5047015;28;20745;-65
2023/05/22 02:23:55;;;;;;;8.48;6.85;;;18.10;99.90;;;;;;5061794;28;20231;-65
2023/05/22 02:26:22;;;;;;;7.97;6.55;;;18.10;99.90;;;;;;5049003;28;20219;-65
2023/05/22 02:28:48;;;;;;;7.22;6.53;;;18.10;99.90;;;;;;5036064;28;20209;-65
2023/05/22 02:31:17;;;;;;;7.90;7.00;;;18.00;99.90;;;;;;5050942;28;20772;-65
2023/05/22 02:33:43;;;;;;;7.38;6.20;;;18.00;99.90;;;;;;5056070;28;20231;-65
2023/05/22 02:36:13;;;;;;;7.28;6.55;;;18.00;99.90;;;;;;5043576;28;20204;-65
2023/05/22 02:38:40;;;;;;;6.65;5.85;;;18.00;99.90;;;;;;5057647;28;20207;-65
2023/05/22 02:41:07;;;;;;;8.73;6.55;;;18.00;99.90;;;;;;5049037;28;20200;-65
2023/05/22 02:43:34;;;;;;;14.30;6.70;;;18.00;99.90;;;;;;5059648;28;20196;-65
2023/05/22 02:46:01;;;;;;;8.35;7.30;;;18.00;99.90;;;;;;5035759;28;20677;-65
2023/05/22 02:48:28;;;;;;;7.22;6.25;;;17.90;99.90;;;;;;5065809;28;20697;-65
2023/05/22 02:50:55;;;;;;;6.55;5.70;;;17.90;99.90;;;;;;5040236;28;20208;-65
2023/05/22 02:53:23;;;;;;;6.63;5.82;;;17.90;99.90;;;;;;5052829;28;20228;-65
2023/05/22 02:55:51;;;;;;;8.68;6.72;;;17.90;99.90;;;;;;5043335;28;20200;-65
2023/05/22 02:58:19;;;;;;;7.15;6.20;;;17.90;99.90;;;;;;5068531;28;20203;-64
2023/05/22 03:00:47;;;;;;;11.43;6.28;;;17.90;99.90;;;;;;5026626;28;20235;-65
2023/05/22 03:03:16;;;;;;;9.90;6.65;;;17.90;99.90;;;;;;5058686;28;20196;-65
2023/05/22 03:05:44;;;;;;;7.90;6.30;;;17.90;99.90;;;;;;5053155;28;20211;-65
2023/05/22 03:08:11;;;;;;;8.73;6.28;;;17.90;99.90;;;;;;5044213;28;20200;-65
2023/05/22 03:10:39;;;;;;;8.63;6.30;;;17.90;99.90;;;;;;5059250;28;20203;-65
2023/05/22 03:13:06;;;;;;;7.07;6.38;;;17.90;99.90;;;;;;5044999;28;20231;-65
2023/05/22 03:15:33;;;;;;;7.47;6.40;;;17.90;99.90;;;;;;5030608;28;20208;-65
2023/05/22 03:18:00;;;;;;;8.35;6.63;;;17.90;99.90;;;;;;5061355;28;20207;-65
2023/05/22 03:20:27;;;;;;;9.95;6.22;;;17.90;99.90;;;;;;5064634;28;20201;-65
2023/05/22 03:22:53;;;;;;;9.38;6.85;;;17.80;99.90;;;;;;5032893;28;20590;-67
2023/05/22 03:25:20;;;;;;;7.55;6.55;;;17.90;99.90;;;;;;5055234;28;20200;-65
2023/05/22 03:27:48;;;;;;;6.97;6.28;;;17.90;99.90;;;;;;5048141;28;20206;-65
2023/05/22 03:30:15;;;;;;;8.80;6.60;;;17.80;99.90;;;;;;5016843;28;21659;-65
2023/05/22 03:32:42;;;;;;;8.95;6.40;;;17.90;99.90;;;;;;5063063;28;20235;-65
2023/05/22 03:35:11;;;;;;;6.85;5.75;;;17.90;99.90;;;;;;5039398;28;20203;-65
2023/05/22 03:37:38;;;;;;;6.25;5.65;;;17.80;99.90;;;;;;5048398;28;20278;-65
2023/05/22 03:40:07;;;;;;;8.68;6.22;;;17.80;99.90;;;;;;5058640;28;20231;-65
2023/05/22 03:42:34;;;;;;;8.25;6.18;;;17.80;99.90;;;;;;5047243;28;20209;-65
2023/05/22 03:45:03;;;;;;;7.03;5.93;;;17.80;99.90;;;;;;5061872;28;20687;-65
2023/05/22 03:47:29;;;;;;;8.50;6.25;;;17.90;99.90;;;;;;5031729;28;21005;-65
2023/05/22 03:49:56;;;;;;;7.55;5.57;;;17.80;99.90;;;;;;5060877;28;20223;-65
2023/05/22 03:52:23;;;;;;;7.80;5.47;;;17.80;99.90;;;;;;5031441;28;20685;-65
2023/05/22 03:54:50;;;;;;;7.53;6.22;;;17.90;99.90;;;;;;5055263;28;20201;-65
2023/05/22 03:57:18;;;;;;;6.35;5.75;;;17.80;99.90;;;;;;5052766;28;20206;-65
2023/05/22 03:59:45;;;;;;;6.78;6.03;;;17.80;99.90;;;;;;5044686;28;20219;-65
2023/05/22 04:02:15;;;;;;;7.38;5.80;;;17.80;99.90;;;;;;5013660;28;20192;-65
2023/05/22 04:04:45;;;;;;;7.25;6.00;;;17.80;99.90;;;;;;5060494;28;20203;-65
2023/05/22 04:07:12;;;;;;;9.15;5.90;;;17.80;99.90;;;;;;5036695;28;20679;-65
2023/05/22 04:09:39;;;;;;;6.63;5.63;;;17.80;99.90;;;;;;5050809;28;20214;-65
2023/05/22 04:12:07;;;;;;;7.90;5.97;;;17.80;99.90;;;;;;5059201;28;20211;-65
2023/05/22 04:14:34;;;;;;;8.43;6.15;;;17.80;99.90;;;;;;5050696;28;20235;-65
2023/05/22 04:17:00;;;;;;;6.45;5.28;;;17.80;99.90;;;;;;5042999;28;20261;-65
2023/05/22 04:19:29;;;;;;;7.32;5.57;;;17.70;99.90;;;;;;5032962;28;20208;-65
2023/05/22 04:21:57;;;;;;;8.35;6.40;;;17.80;99.90;;;;;;5041179;28;20223;-65
2023/05/22 04:24:24;;;;;;;8.48;5.47;;;17.70;99.90;;;;;;5052408;28;20226;-65
2023/05/22 04:26:51;;;;;;;8.73;6.35;;;17.70;99.90;;;;;;5062118;28;20197;-65
2023/05/22 04:29:20;;;;;;;7.72;5.95;;;17.80;99.90;;;;;;5049872;28;20316;-65
2023/05/22 04:31:47;;;;;;;7.13;5.88;;;17.70;99.90;;;;;;5056276;28;20200;-65
2023/05/22 04:34:15;;;;;;;7.15;6.45;;;17.70;99.90;;;;;;5010881;28;21023;-65
2023/05/22 04:36:45;;;;;;;7.13;6.43;;;17.80;99.90;;;;;;5046690;28;20224;-65
2023/05/22 04:39:13;;;;;;;7.38;6.53;;;17.70;99.90;;;;;;5028127;28;20791;-64
2023/05/22 04:41:40;;;;;;;6.65;5.68;;;17.80;99.90;;;;;;5047840;28;20228;-64
2023/05/22 04:44:07;;;;;;;7.00;6.13;;;17.70;99.90;;;;;;5036774;28;20442;-64
2023/05/22 04:46:34;;;;;;;11.27;5.90;;;17.80;99.90;;;;;;5055475;28;20228;-65
2023/05/22 04:49:02;;;;;;;10.77;6.00;;;17.70;99.90;;;;;;5028996;28;20200;-65
2023/05/22 04:51:30;;;;;;;8.20;6.57;;;17.70;99.90;;;;;;5040811;28;20201;-64
2023/05/22 04:53:58;;;;;;;8.02;6.00;;;17.80;99.90;;;;;;5005190;28;20236;-65
2023/05/22 04:56:25;;;;;;;8.02;6.63;;;17.80;99.90;;;;;;5033944;28;20195;-64
2023/05/22 04:58:54;;;;;;;7.80;6.00;;;17.80;99.90;;;;;;5043312;28;20224;-65
2023/05/22 05:01:21;;;;;;;5.80;5.22;;;17.90;99.90;;;;;;5018420;28;20571;-65
2023/05/22 05:03:48;;;;;;;7.70;6.57;;;17.80;99.90;;;;;;5033441;28;20213;-64
2023/05/22 05:06:16;;;;;;;9.30;6.13;;;17.80;99.90;;;;;;5009867;28;20228;-64
2023/05/22 05:08:43;;;;;;;7.70;5.90;;;17.90;99.90;;;;;;5020206;28;20251;-65
2023/05/22 05:11:11;;;;;;;6.85;6.13;;;17.90;99.90;;;;;;5033278;28;21183;-64
2023/05/22 05:13:38;;;;;;;6.07;5.47;;;17.90;99.90;;;;;;5043875;28;20610;-65
2023/05/22 05:16:05;;;;;;;6.15;5.05;;;17.90;99.90;;;;;;5029691;28;20231;-64
2023/05/22 05:18:32;;;;;;;6.68;5.70;;;17.90;99.90;;;;;;5048080;28;20216;-65
2023/05/22 05:20:59;;;;;;;7.45;5.53;;;17.90;99.90;;;;;;5020859;28;20224;-65
2023/05/22 05:23:25;;;;;;;7.85;6.32;;;17.90;99.90;;;;;;5047114;28;20234;-65
2023/05/22 05:25:52;;;;;;;7.55;5.45;;;17.90;99.90;;;;;;5054072;28;20299;-64
2023/05/22 05:28:21;;;;;;;6.50;5.40;;;17.90;99.90;;;;;;5045103;28;20219;-64
2023/05/22 05:30:47;;;;;;;7.53;5.90;;;18.00;99.90;;;;;;5041455;28;20199;-64
2023/05/22 05:33:14;;;;;;;6.80;5.78;;;18.00;99.90;;;;;;5054643;28;20313;-64
2023/05/22 05:35:41;;;;;;;7.82;5.65;;;18.00;99.90;;;;;;5060395;28;20192;-64
2023/05/22 05:38:08;;;;;;;7.28;5.15;;;18.00;99.90;;;;;;5023335;28;20208;-64
2023/05/22 05:40:35;;;;;;;6.00;5.38;;;18.00;99.90;;;;;;5044875;28;20214;-64
2023/05/22 05:43:02;;;;;;;9.57;5.88;;;18.00;99.90;;;;;;5041368;28;20204;-64
2023/05/22 05:45:30;;;;;;;7.38;6.00;;;18.00;99.90;;;;;;5045150;28;20294;-64
2023/05/22 05:47:57;;;;;;;9.25;5.22;;;18.00;99.90;;;;;;5055685;28;20204;-64
2023/05/22 05:50:23;;;;;;;6.60;5.47;;;18.00;99.90;;;;;;5061092;28;20200;-64
2023/05/22 05:52:50;;;;;;;6.63;5.72;;;18.10;99.90;;;;;;5026875;28;20867;-64
2023/05/22 05:55:17;;;;;;;6.25;5.65;;;18.10;99.90;;;;;;5056743;28;20239;-64
2023/05/22 05:57:44;;;;;;;6.20;5.15;;;18.10;99.90;;;;;;5051608;28;20693;-65
2023/05/22 06:00:12;;;;;;;5.78;5.07;;;18.10;99.90;;;;;;5043257;28;20219;-64
2023/05/22 06:02:40;;;;;;;10.13;5.75;;;18.10;99.90;;;;;;5061822;28;20216;-65
2023/05/22 06:05:07;;;;;;;7.32;5.30;;;18.20;99.90;;;;;;5056628;28;20195;-64
2023/05/22 06:07:36;;;;;;;6.32;5.63;;;18.20;99.90;;;;;;5011521;28;20695;-65
2023/05/22 06:10:18;;;;;;;6.13;5.50;;;18.20;99.90;;;;;;5057069;28;20578;-65
2023/05/22 06:12:45;;;;;;;6.32;5.65;;;18.20;99.90;;;;;;5002566;28;21674;-65
2023/05/22 06:15:12;;;;;;;7.50;4.93;;;18.20;99.90;;;;;;5034620;28;20726;-65
2023/05/22 06:17:40;;;;;;;7.22;5.75;;;18.20;99.90;;;;;;5021996;28;20742;-65
2023/05/22 06:20:08;;;;;;;9.73;6.00;;;18.30;99.90;;;;;;5039017;28;20722;-64
2023/05/22 06:22:35;;;;;;;5.60;5.10;;;18.30;99.90;;;;;;5001191;28;20237;-65
2023/05/22 06:25:02;;;;;;;7.53;5.57;;;18.30;99.90;;;;;;5038177;28;20203;-65
2023/05/22 06:27:28;;;;;;;7.82;5.65;;;18.30;99.90;;;;;;5025379;28;21113;-65
2023/05/22 06:29:55;;;;;;;6.65;5.40;;;18.30;99.90;;;;;;5023801;28;20581;-64
2023/05/22 06:32:22;;;;;;;7.53;5.75;;;18.40;99.90;;;;;;5018843;28;20807;-65
2023/05/22 06:34:50;;;;;;;9.77;5.55;;;18.40;99.90;;;;;;5036729;28;20586;-64
2023/05/22 06:37:17;;;;;;;6.75;5.78;;;18.40;99.90;;;;;;5033225;28;21523;-65
2023/05/22 06:39:44;;;;;;;6.45;5.35;;;18.50;99.90;;;;;;5008688;28;20617;-64
2023/05/22 06:42:11;;;;;;;6.50;5.18;;;18.50;99.90;;;;;;5030201;28;20201;-65
2023/05/22 06:44:37;;;;;;;7.18;5.25;;;18.50;99.90;;;;;;5035818;28;20208;-64
2023/05/22 06:47:05;;;;;;;5.80;5.20;;;18.60;99.90;;;;;;5051212;28;20208;-65
2023/05/22 06:49:31;;;;;;;8.82;5.82;;;18.60;99.90;;;;;;5061466;28;20314;-65
2023/05/22 06:51:59;;;;;;;11.05;5.22;;;18.60;99.90;;;;;;5061427;28;20208;-65
2023/05/22 06:54:28;;;;;;;7.03;5.55;;;18.60;99.90;;;;;;5027417;28;20459;-65
2023/05/22 06:56:55;;;;;;;5.50;5.00;;;18.50;99.90;;;;;;5059618;28;20212;-65
2023/05/22 06:59:21;;;;;;;6.32;5.30;;;18.60;99.90;;;;;;5036856;28;20345;-65
2023/05/22 07:01:48;;;;;;;6.50;5.57;;;18.50;99.90;;;;;;5065099;28;20221;-65
2023/05/22 07:04:15;;;;;;;7.13;5.50;;;18.50;99.90;;;;;;5041807;28;20192;-65
2023/05/22 07:06:42;;;;;;;5.53;4.75;;;18.50;99.90;;;;;;5063014;28;20188;-64
2023/05/22 07:09:12;;;;;;;18.63;6.30;;;18.50;99.90;;;;;;5053614;28;21994;-65
2023/05/22 07:11:41;;;;;;;7.88;5.07;;;18.50;99.90;;;;;;5028372;28;20212;-64
2023/05/22 07:14:07;;;;;;;6.85;5.25;;;18.50;99.90;;;;;;5046367;28;20266;-65
2023/05/22 07:16:35;;;;;;;7.57;5.30;;;18.50;99.90;;;;;;5049080;28;20200;-65
2023/05/22 07:19:02;;;;;;;6.25;5.40;;;18.50;99.90;;;;;;5049981;28;20215;-65
2023/05/22 07:21:30;;;;;;;9.35;5.68;;;18.50;99.90;;;;;;5061628;28;20201;-64
2023/05/22 07:23:57;;;;;;;7.50;5.65;;;18.50;99.90;;;;;;5057406;28;20319;-65
2023/05/22 07:26:26;;;;;;;5.88;5.28;;;18.50;99.90;;;;;;5028649;28;20204;-65
2023/05/22 07:28:52;;;;;;;6.75;6.13;;;18.50;99.90;;;;;;5047457;28;20274;-65
2023/05/22 07:31:19;;;;;;;11.27;5.05;;;18.50;99.90;;;;;;5041791;28;20215;-65
2023/05/22 07:33:46;;;;;;;7.85;5.60;;;18.50;99.90;;;;;;5050501;28;20200;-65
2023/05/22 07:36:13;;;;;;;9.50;6.07;;;18.50;99.90;;;;;;5055697;28;20204;-65
2023/05/22 07:38:40;;;;;;;9.18;5.60;;;18.50;99.90;;;;;;5058684;28;20197;-65
2023/05/22 07:41:06;;;;;;;8.75;5.68;;;18.50;99.90;;;;;;5038718;28;20196;-65
2023/05/22 07:43:35;;;;;;;6.38;5.20;;;18.50;99.90;;;;;;5053415;28;20549;-65
2023/05/22 07:46:01;;;;;;;7.65;5.43;;;18.40;99.90;;;;;;5052425;28;20204;-65
2023/05/22 07:48:28;;;;;;;8.93;5.13;;;18.40;99.90;;;;;;5054547;28;20379;-64
2023/05/22 07:50:55;;;;;;;9.93;5.82;;;18.40;99.90;;;;;;5043549;28;20212;-65
2023/05/22 07:53:22;;;;;;;9.45;6.13;;;18.30;99.90;;;;;;5058507;28;20400;-65
2023/05/22 07:55:49;;;;;;;9.48;5.85;;;18.30;99.90;;;;;;5062491;28;20232;-65
2023/05/22 07:58:16;;;;;;;12.35;6.75;;;18.30;99.90;;;;;;5023959;28;20216;-64
2023/05/22 08:00:44;;;;;;;6.90;6.03;;;18.30;99.90;;;;;;5047676;28;20705;-65
2023/05/22 08:03:12;;;;;;;8.32;6.20;;;18.20;99.90;;;;;;5043201;28;20212;-65
2023/05/22 08:05:38;;;;;;;7.63;6.20;;;18.20;99.90;;;;;;5043358;28;20343;-65
2023/05/22 08:08:05;;;;;;;6.03;5.43;;;18.10;99.90;;;;;;5061934;28;20212;-65
2023/05/22 08:10:32;;;;;;;7.85;7.05;;;18.10;99.90;;;;;;5059137;28;20217;-65
2023/05/22 08:13:01;;;;;;;11.15;7.25;;;18.10;99.90;;;;;;5028116;28;20204;-64
2023/05/22 08:15:28;;;;;;;10.27;6.82;;;18.00;99.90;;;;;;5027713;28;20234;-64
2023/05/22 08:17:56;;;;;;;9.13;6.38;;;18.10;99.90;;;;;;5056763;28;20200;-65
2023/05/22 08:20:23;;;;;;;11.23;7.43;;;18.10;99.90;;;;;;5035285;28;20216;-65
2023/05/22 08:22:49;;;;;;;13.25;7.25;;;18.10;99.90;;;;;;5051992;28;20542;-65
2023/05/22 08:25:16;;;;;;;11.05;7.50;;;18.10;99.90;;;;;;5055000;28;20208;-64
2023/05/22 08:27:43;;;;;;;7.53;6.82;;;18.10;99.90;;;;;;5028319;28;20208;-64
2023/05/22 08:30:10;;;;;;;8.90;7.90;;;18.10;99.90;;;;;;5042115;28;20207;-64
2023/05/22 08:32:37;;;;;;;8.57;7.60;;;18.10;99.90;;;;;;5057140;28;20203;-64
2023/05/22 08:35:06;;;;;;;8.07;7.20;;;18.20;99.90;;;;;;5046675;28;20236;-65
2023/05/22 08:37:33;;;;;;;7.80;7.00;;;18.20;99.90;;;;;;5040524;28;20753;-65
2023/05/22 08:40:00;;;;;;;9.07;6.78;;;18.20;99.90;;;;;;5057581;28;20212;-65
2023/05/22 08:42:27;;;;;;;9.30;7.43;;;18.10;99.90;;;;;;5035419;28;20206;-65
2023/05/22 08:44:56;;;;;;;10.00;6.93;;;18.10;99.90;;;;;;5044766;28;20297;-65
2023/05/22 08:47:27;;;;;;;9.50;7.60;;;18.00;99.90;;;;;;5046248;28;20277;-65
2023/05/22 08:49:56;;;;;;;11.02;7.13;;;18.00;99.90;;;;;;5057760;28;20352;-64
2023/05/22 08:52:34;;;;;;;10.30;7.90;;;17.90;99.90;;;;;;5029227;28;20291;-65
2023/05/22 08:55:03;;;;;;;10.10;7.90;;;17.90;99.90;;;;;;5056323;28;20227;-65
2023/05/22 08:57:31;;;;;;;11.10;6.95;;;18.00;99.90;;;;;;5056546;28;20200;-64
2023/05/22 08:59:58;;;;;;;9.60;7.32;;;17.90;99.90;;;;;;5023280;28;20388;-65
2023/05/22 09:02:25;;;;;;;8.00;7.20;;;17.90;99.90;;;;;;5044058;28;20696;-64
2023/05/22 09:04:52;;;;;;;9.02;6.65;;;18.00;99.90;;;;;;5058401;28;20208;-64
2023/05/22 09:07:20;;;;;;;11.15;7.55;;;18.00;99.90;;;;;;5028192;28;20197;-64
2023/05/22 09:09:49;;;;;;;11.07;7.53;;;18.00;99.90;;;;;;5055397;28;20227;-64
2023/05/22 09:12:16;;;;;;;9.52;7.57;;;18.10;99.90;;;;;;5059290;28;20751;-64
2023/05/22 09:14:44;;;;;;;8.45;7.47;;;18.10;99.90;;;;;;5027694;28;20227;-64
2023/05/22 09:17:14;;;;;;;9.98;7.35;;;18.10;99.90;;;;;;5045475;28;20212;-64
2023/05/22 09:19:44;;;;;;;11.13;7.63;;;18.10;99.90;;;;;;5058142;28;20193;-64
2023/05/22 09:22:11;;;;;;;8.38;7.45;;;18.00;99.90;;;;;;5041462;28;20635;-65
2023/05/22 09:24:39;;;;;;;13.45;8.63;;;18.00;99.90;;;;;;5059392;28;20212;-64
2023/05/22 09:27:09;;;;;;;9.25;7.60;;;18.00;99.90;;;;;;5049658;28;20321;-65
2023/05/22 09:29:48;;;;;;;11.13;7.82;;;18.00;99.90;;;;;;5025509;28;20208;-64
2023/05/22 09:32:16;;;;;;;10.10;8.98;;;18.00;99.90;;;;;;5048560;28;20433;-64
2023/05/22 09:34:43;;;;;;;10.02;8.32;;;18.00;99.90;;;;;;5057577;28;20224;-65
2023/05/22 09:37:10;;;;;;;9.40;8.43;;;18.00;99.90;;;;;;5057614;28;20207;-64
2023/05/22 09:39:41;;;;;;;10.00;8.60;;;18.00;99.90;;;;;;5044512;28;20205;-65
2023/05/22 09:42:13;;;;;;;9.55;8.60;;;18.00;99.90;;;;;;5054446;28;20268;-64
2023/05/22 09:44:41;;;;;;;12.18;9.23;;;17.90;99.90;;;;;;5050187;28;20234;-65
2023/05/22 09:47:09;;;;;;;10.68;9.02;;;18.00;99.90;;;;;;5028550;28;20491;-64
2023/05/22 09:49:40;;;;;;;10.52;8.95;;;18.00;99.90;;;;;;5064446;28;20258;-64
2023/05/22 09:52:08;;;;;;;9.77;8.23;;;17.90;99.90;;;;;;5060130;28;20422;-64
2023/05/22 09:54:38;;;;;;;11.98;8.40;;;18.00;99.90;;;;;;5038814;28;20223;-64
2023/05/22 09:57:09;;;;;;;14.77;9.20;;;18.00;99.90;;;;;;5059600;28;20696;-65
2023/05/22 09:59:39;;;;;;;10.70;8.65;;;18.00;99.90;;;;;;5065344;28;20447;-64
2023/05/22 10:02:07;;;;;;;16.45;9.65;;;18.00;99.90;;;;;;5032734;28;20257;-64
2023/05/22 10:04:34;;;;;;;10.75;9.05;;;18.00;99.90;;;;;;5059843;28;20208;-64
2023/05/22 10:07:03;;;;;;;13.23;9.68;;;18.00;99.90;;;;;;5064242;28;20461;-64
2023/05/22 10:09:33;;;;;;;11.48;9.90;;;17.90;99.90;;;;;;5045341;28;20230;-64
2023/05/22 10:12:06;;;;;;;13.05;10.13;;;18.00;99.90;;;;;;5066202;28;20673;-64
2023/05/22 10:14:35;;;;;;;10.77;9.68;;;17.90;99.90;;;;;;5066973;28;20760;-65
2023/05/22 10:17:05;;;;;;;13.25;9.85;;;17.80;99.90;;;;;;5033860;28;20266;-64
2023/05/22 10:19:33;;;;;;;13.43;10.95;;;17.90;99.90;;;;;;5057286;28;21267;-64
2023/05/22 10:22:01;;;;;;;16.08;10.27;;;17.80;99.90;;;;;;5059395;28;20220;-64
2023/05/22 10:24:29;;;;;;;14.07;10.13;;;17.90;99.90;;;;;;5044982;28;20525;-65
2023/05/22 10:26:56;;;;;;;14.52;11.40;;;17.90;99.90;;;;;;5066955;28;20193;-64
2023/05/22 10:29:29;;;;;;;20.98;11.30;;;17.90;99.90;;;;;;5065530;28;20203;-64
2023/05/22 10:32:01;;;;;;;13.63;10.50;;;17.90;99.90;;;;;;5033766;28;20205;-64
2023/05/22 10:34:38;;;;;;;11.00;9.85;;;18.00;99.90;;;;;;5051323;28;20591;-64
2023/05/22 10:37:21;;;;;;;15.45;10.90;;;17.90;99.90;;;;;;5063148;28;20200;-64
2023/05/22 10:40:00;;;;;;;10.50;9.40;;;18.00;99.90;;;;;;5045341;28;20980;-64
2023/05/22 10:42:29;;;;;;;15.93;9.88;;;18.00;99.90;;;;;;5064147;28;20235;-64
2023/05/22 10:44:56;;;;;;;13.43;10.13;;;18.10;99.90;;;;;;5062409;28;20267;-63
2023/05/22 10:47:23;;;;;;;11.63;10.43;;;18.10;99.90;;;;;;5024507;28;20287;-65
2023/05/22 10:50:03;;;;;;;13.68;10.50;;;18.10;99.90;;;;;;5054173;28;20205;-64
2023/05/22 10:52:30;;;;;;;12.30;10.20;;;18.20;99.90;;;;;;5067041;28;20196;-64
2023/05/22 10:55:00;;;;;;;17.33;10.77;;;18.30;99.90;;;;;;5057418;28;20224;-64
2023/05/22 10:57:31;;;;;;;13.15;10.85;;;18.10;99.90;;;;;;5039983;28;20262;-64
2023/05/22 11:00:08;;;;;;;11.43;10.32;;;18.30;99.90;;;;;;5046020;28;20239;-64
2023/05/22 11:02:39;;;;;;;15.65;11.20;;;18.30;99.90;;;;;;5024839;28;20210;-64
2023/05/22 11:05:36;;;;;;;14.50;10.93;;;18.30;99.90;;;;;;5036550;28;20341;-64
2023/05/22 11:08:33;;;;;;;13.77;10.98;;;18.40;99.90;;;;;;5042158;28;20223;-64
2023/05/22 11:11:11;;;;;;;14.27;11.00;;;18.40;99.90;;;;;;5016665;28;20649;-64
2023/05/22 11:13:39;;;;;;;12.98;10.07;;;18.40;99.90;;;;;;5066764;28;20200;-64
2023/05/22 11:16:06;;;;;;;11.27;9.93;;;18.40;99.90;;;;;;5050460;28;20229;-64
2023/05/22 11:18:32;;;;;;;11.85;10.50;;;18.50;99.90;;;;;;5019887;28;20221;-64
2023/05/22 11:21:01;;;;;;;12.45;11.10;;;18.40;99.90;;;;;;5044515;28;20223;-64
2023/05/22 11:23:28;;;;;;;11.13;10.02;;;18.40;99.90;;;;;;5063054;28;20662;-64
2023/05/22 11:25:54;;;;;;;17.23;10.68;;;18.40;99.90;;;;;;5051707;28;20243;-63
2023/05/22 11:28:23;;;;;;;11.45;10.10;;;18.50;99.90;;;;;;5039541;28;20208;-65
2023/05/22 11:30:51;;;;;;;14.82;9.90;;;18.50;99.90;;;;;;5060492;28;20208;-65
2023/05/22 11:33:19;;;;;;;12.20;10.18;;;18.50;99.90;;;;;;5023124;28;20907;-65
2023/05/22 11:35:48;;;;;;;17.98;10.52;;;18.50;99.90;;;;;;5054451;28;20768;-65
2023/05/22 11:38:17;;;;;;;15.75;10.68;;;18.50;99.90;;;;;;5065408;28;20287;-65
2023/05/22 11:40:44;;;;;;;16.25;10.40;;;18.50;99.90;;;;;;5049091;28;20212;-65
2023/05/22 11:43:10;;;;;;;12.70;10.00;;;18.50;99.90;;;;;;5039313;28;20200;-65
2023/05/22 11:45:39;;;;;;;13.65;9.68;;;18.40;99.90;;;;;;5067194;28;20192;-66
2023/05/22 11:48:08;;;;;;;13.00;9.18;;;18.50;99.90;;;;;;5028701;28;20955;-65
2023/05/22 11:50:35;;;;;;;11.40;10.00;;;18.50;99.90;;;;;;5061632;28;20203;-65
2023/05/22 11:53:02;;;;;;;13.75;9.90;;;18.50;99.90;;;;;;5046351;28;20219;-65
2023/05/22 11:55:32;;;;;;;17.88;10.25;;;18.50;99.90;;;;;;5057229;28;20218;-65
2023/05/22 11:58:01;;;;;;;13.15;9.43;;;18.50;99.90;;;;;;5047970;28;20196;-65
2023/05/22 12:00:28;;;;;;;15.40;9.93;;;18.50;99.90;;;;;;5047686;28;20289;-65
2023/05/22 12:02:55;;;;;;;13.38;10.52;;;18.50;99.90;;;;;;5062134;28;20200;-65
2023/05/22 12:05:21;;;;;;;13.80;10.52;;;18.50;99.90;;;;;;5028971;28;20687;-65
2023/05/22 12:07:48;;;;;;;13.25;9.57;;;18.40;99.90;;;;;;5050287;28;20208;-65
2023/05/22 12:10:15;;;;;;;12.30;10.48;;;18.40;99.90;;;;;;5064975;28;20192;-65
2023/05/22 12:12:44;;;;;;;10.90;9.73;;;18.30;99.90;;;;;;5045867;28;20241;-65
2023/05/22 12:15:11;;;;;;;11.60;10.40;;;18.30;99.90;;;;;;5040466;28;21159;-65
2023/05/22 12:17:39;;;;;;;14.82;10.35;;;18.30;99.90;;;;;;5056120;28;20559;-66
2023/05/22 12:20:06;;;;;;;13.55;10.73;;;18.30;99.90;;;;;;5013492;28;21186;-65
2023/05/22 12:22:33;;;;;;;12.32;9.85;;;18.30;99.90;;;;;;5051676;28;20230;-65
2023/05/22 12:25:00;;;;;;;14.35;11.18;;;18.30;99.90;;;;;;5055895;28;20192;-65
2023/05/22 12:27:30;;;;;;;12.07;10.77;;;18.30;99.90;;;;;;5059656;28;20227;-65
2023/05/22 12:29:58;;;;;;;15.63;10.43;;;18.30;99.90;;;;;;5057206;28;20201;-65
2023/05/22 12:32:25;;;;;;;12.88;10.45;;;18.30;99.90;;;;;;5046987;28;20197;-65
2023/05/22 12:34:52;;;;;;;14.70;10.40;;;18.40;99.90;;;;;;5028494;28;20208;-66
2023/05/22 12:37:21;;;;;;;10.70;9.50;;;18.40;99.90;;;;;;5059066;28;20236;-65
2023/05/22 12:39:56;;;;;;;12.73;10.25;;;18.40;99.90;;;;;;5040274;28;20204;-65
2023/05/22 12:42:22;;;;;;;11.73;9.48;;;18.40;99.90;;;;;;5062989;28;21442;-65
2023/05/22 12:44:51;;;;;;;16.55;10.57;;;18.40;99.90;;;;;;5057728;28;21190;-65
2023/05/22 12:47:20;;;;;;;11.85;10.25;;;18.50;99.90;;;;;;5049069;28;20279;-65